Tiempo atmosférico en la estación meteorológica de Anaga, Santa Cruz de Tenerife (19 m.)



Fecha
DESCASC
Temp. máxima en grados centígrados (hora)
DESCASC
Temp. mínima en grados centígrados (hora)
DESCASC
Temp. media en grados centígrados
DESCASC
Racha de viento máxima en m/sg (hora)
DESCASC
Velocidad máxima media en intervalos de 10 minutos(hora)
DESCASC
Precipitaciones diarias en mm
DESCASC
Precipitaciones de 00:00 a 06:00 en mm
DESCASC
Precipitaciones de 06:00 a 12:00 en mm
DESCASC
Precipitaciones de 12:00 a 18:00 en mm
DESCASC
Precipitaciones de 18:00 a 24:00 en mm
DESCASC
17-08-2019 36.4 (13:30) 25.9 (00:00) 31.2 9.17 (17:10) 4.17 (16:50) 0 0 0 0 0
16-08-2019 36.5 (15:30) 23.7 (00:00) 30.1 8.06 (18:30) 4.17 (01:00) 0 0 0 0 0
24-08-2019 34 (17:10) 25.4 (00:00) 29.7 8.06 (03:40) 3.89 (13:00) 0 0 0 0 0
19-08-2019 33.3 (17:50) 23.2 (00:00) 28.3 11.39 (23:40) 5.83 (23:30) 0 0 0 0 0
18-08-2019 31.8 (11:40) 23.6 (00:00) 27.7 6.67 (10:40) 3.89 (14:20) 0 0 0 0 0
23-08-2019 30.5 (14:10) 23.3 (00:00) 26.9 12.78 (12:50) 6.11 (15:40) 0 0 0 0 0
22-08-2019 30.9 (15:20) 21.8 (00:00) 26.3 11.11 (16:10) 5.83 (16:10) 0 0 0 0 0
10-08-2019 29 (14:00) 23.3 (00:00) 26.1 11.94 (04:20) 5.83 (04:20) 0 0 0 0 0
07-08-2019 29.7 (16:00) 22.4 (00:00) 26.1 9.72 (11:50) 4.17 (18:20) 0 0 0 0 0
15-08-2019 28.7 (15:50) 22 (00:00) 25.4 11.11 (03:40) 5.56 (03:40) 0 0 0 0 0
06-08-2019 27.7 (16:00) 22.6 (00:00) 25.2 11.39 (17:40) 4.72 (00:50) 0 0 0 0 0
11-08-2019 27.4 (13:40) 23 (00:00) 25.2 11.94 (16:50) 5 (16:10) 0 0 0 0 0
20-08-2019 28.4 (15:30) 21.8 (00:00) 25.1 10.28 (00:20) 5 (11:50) 0 0 0 0 0
05-08-2019 27 (14:50) 22.8 (00:00) 24.9 9.44 (07:20) 4.17 (12:00) 0 0 0 0 0
26-07-2019 27.5 (17:00) 22.4 (00:00) 24.9 11.11 (12:00) 5.28 (12:10) 0 0 0 0 0
09-08-2019 28.9 (17:50) 20.5 (00:00) 24.7 8.33 (14:20) 3.61 (13:40) 0 0 0 0 0
12-08-2019 26.9 (13:30) 22.5 (00:00) 24.7 10.83 (20:20) 5 (21:10) 0 0 0 0 0
08-08-2019 28.2 (15:10) 20.8 (00:00) 24.5 6.39 (13:00) 3.06 (16:00) 0 0 0 0 0
14-08-2019 27.5 (16:10) 21.4 (00:00) 24.4 11.11 (23:50) 5 (07:30) 0 0 0 0 0
21-08-2019 26.5 (15:40) 22.2 (00:00) 24.4 10.83 (13:50) 5.28 (00:20) 0 0 0 0 0
04-08-2019 27.2 (15:10) 21.6 (00:00) 24.4 9.72 (14:20) 3.61 (21:40) 0 0 0 0 0
02-08-2019 27.1 (15:50) 21.4 (00:00) 24.3 10.83 (12:30) 4.72 (16:10) 0 0 0 0 0
29-07-2019 26.6 (16:20) 22 (00:00) 24.3 11.67 (20:00) 4.72 (03:00) 0 0 0 0 0
28-07-2019 26.3 (14:50) 22.1 (00:00) 24.2 9.44 (05:00) 3.89 (14:20) 0 0 0 0 0
13-08-2019 26.3 (14:20) 22 (00:00) 24.1 11.39 (13:50) 4.72 (13:30) 0 0 0 0 0
01-08-2019 26.5 (13:20) 21.2 (00:00) 23.9 9.17 (12:00) 3.89 (18:00) 0 0 0 0 0
03-08-2019 26.1 (13:20) 21.8 (00:00) 23.9 12.22 (18:40) 5.56 (13:40) 0 0 0 0 0
27-07-2019 26.3 (15:30) 21.6 (00:00) 23.9 10.83 (17:40) 5 (16:40) 0 0 0 0 0
31-07-2019 25.8 (15:20) 21.3 (00:00) 23.5 11.94 (02:40) 4.72 (02:30) 0 0 0 0 0
30-07-2019 25.1 (13:50) 21.2 (00:00) 23.2 12.22 (17:00) 4.44 (07:40) 0 0 0 0 0

Gráficas

Temp. máximas Temp. mínimas Temp. medias Precipitaciones Rachas de viento máximas Velocidades máximas media en intervalos de 10 minutos

Datos horarios

Fecha y hora oficial Temperatura (ºC) Velocidad del viento (km/h) Dirección del viento Racha (km/h) Dirección de racha Precipitación (mm) Presión (hPa) Tendencia (hPa) Humedad (%)
2019-08-24 23:00:00 28.4 4 Sur 17 Nordeste 0 -- -- 43
2019-08-24 22:00:00 30.8 9 Nordeste 28 Norte 0 -- -- 29
2019-08-24 21:00:00 31.2 9 Nordeste 23 Nordeste 0 -- -- 26
2019-08-24 20:00:00 31.7 7 Norte 27 Nordeste 0 -- -- 28
2019-08-24 19:00:00 33.4 12 Norte 23 Norte 0 -- -- 23
2019-08-24 18:00:00 33.4 5 Sur 13 Sur 0 -- -- 31
2019-08-24 17:00:00 33.9 6 Sur 14 Sur 0 -- -- 29
2019-08-24 16:00:00 33 6 Sudeste 14 Sudoeste 0 -- -- 40
2019-08-24 15:00:00 31.6 4 Sur 14 Sur 0 -- -- 45
2019-08-24 14:00:00 30.4 10 Sudeste 19 Sudeste 0 -- -- 47
2019-08-24 13:00:00 30.9 14 Sudoeste 24 Sudoeste 0 -- -- 47
2019-08-24 12:00:00 31.7 5 Sudeste 14 Sur 0 -- -- 39
2019-08-24 11:00:00 31.7 6 Sudeste 18 Sur 0 -- -- 41
2019-08-24 10:00:00 30.7 3 Noroeste 17 Sudeste 0 -- -- 33
2019-08-24 09:00:00 30.4 4 Norte 24 Sudoeste 0 -- -- 27
2019-08-24 08:00:00 30.8 9 Sudoeste 27 Oeste 0 -- -- 29
2019-08-24 07:00:00 28.4 10 Norte 23 Noroeste 0 -- -- 32
2019-08-24 06:00:00 25.5 5 Norte 23 Noroeste 0 -- -- 54
2019-08-24 05:00:00 26.1 9 Norte 25 Norte 0 -- -- 45
2019-08-24 04:00:00 25.5 11 Norte 29 Nordeste 0 -- -- 53
2019-08-24 03:00:00 27.5 10 Norte 27 Norte 0 -- -- 40
2019-08-24 02:00:00 28.4 9 Nordeste 21 Nordeste 0 -- -- 35
2019-08-24 01:00:00 28.3 8 Nordeste 20 Nordeste 0 -- -- 32
2019-08-24 00:00:00 27.2 13 Nordeste 29 Nordeste 0 -- -- 41
2019-08-23 23:00:00 26.5 14 Nordeste 32 Nordeste 0 -- -- 51
2019-08-23 22:00:00 27.4 10 Nordeste 25 Nordeste 0 -- -- 47
2019-08-23 21:00:00 28.1 11 Nordeste 26 Nordeste 0 -- -- 41
2019-08-23 20:00:00 28.1 12 Nordeste 28 Nordeste 0 -- -- 43
2019-08-23 19:00:00 27.5 15 Nordeste 35 Nordeste 0 -- -- 52
2019-08-23 18:00:00 29.8 17 Nordeste 33 Nordeste 0 -- -- 43
2019-08-23 17:00:00 29.2 18 Nordeste 38 Nordeste 0 -- -- 48
2019-08-23 16:00:00 30 19 Nordeste 40 Norte 0 -- -- 45
2019-08-23 15:00:00 29.8 18 Nordeste 35 Nordeste 0 -- -- 47
2019-08-23 14:00:00 30 18 Nordeste 37 Norte 0 -- -- 43
2019-08-23 13:00:00 28.8 21 Nordeste 46 Nordeste 0 -- -- 48
2019-08-23 12:00:00 29.7 19 Nordeste 35 Nordeste 0 -- -- 43
2019-08-23 11:00:00 28.9 17 Nordeste 34 Nordeste 0 -- -- 43
2019-08-23 10:00:00 27.1 14 Nordeste 30 Nordeste 0 -- -- 46
2019-08-23 09:00:00 24.9 9 Nordeste 24 Norte 0 -- -- 56
2019-08-23 08:00:00 23.6 10 Nordeste 35 Norte 0 -- -- 60
2019-08-23 07:00:00 23.6 8 Norte 30 Nordeste 0 -- -- 62
2019-08-23 06:00:00 23.4 12 Nordeste 33 Nordeste 0 -- -- 63
2019-08-23 05:00:00 23.6 12 Nordeste 28 Nordeste 0 -- -- 62
2019-08-23 04:00:00 23.5 13 Norte 30 Nordeste 0 -- -- 60
2019-08-23 03:00:00 24.4 9 Nordeste 28 Nordeste 0 -- -- 52
2019-08-23 02:00:00 23.8 12 Norte 40 Norte 0 -- -- 57
2019-08-23 01:00:00 24.1 13 Norte 27 Nordeste 0 -- -- 57
2019-08-23 00:00:00 24 12 Norte 32 Norte 0 -- -- 55
2019-08-22 23:00:00 23.5 14 Norte 37 Norte 0 -- -- 61
2019-08-22 22:00:00 23.3 16 Norte 39 Norte 0 -- -- 64
2019-08-22 21:00:00 23.6 17 Norte 38 Norte 0 -- -- 64
2019-08-22 20:00:00 24.5 19 Norte 40 Norte 0 -- -- 56
2019-08-22 19:00:00 26.7 16 Norte 37 Norte 0 -- -- 48
2019-08-22 18:00:00 28 19 Norte 36 Norte 0 -- -- 45
2019-08-22 17:00:00 29.8 17 Norte 40 Norte 0 -- -- 36
2019-08-22 16:00:00 30.7 18 Norte 34 Nordeste 0 -- -- 32
2019-08-22 15:00:00 30.4 14 Norte 31 Nordeste 0 -- -- 35
2019-08-22 14:00:00 28.2 14 Nordeste 30 Nordeste 0 -- -- 45
2019-08-22 13:00:00 27.6 15 Norte 31 Nordeste 0 -- -- 45
2019-08-22 12:00:00 26.8 14 Norte 35 Norte 0 -- -- 51
2019-08-22 11:00:00 25.5 15 Norte 31 Norte 0 -- -- 55
2019-08-22 10:00:00 24.3 13 Norte 26 Norte 0 -- -- 61
2019-08-22 09:00:00 22.8 11 Norte 27 Noroeste 0 -- -- 68
2019-08-22 08:00:00 21.8 10 Norte 26 Noroeste 0 -- -- 70
2019-08-22 07:00:00 21.9 10 Norte 28 Noroeste 0 -- -- 71
2019-08-22 06:00:00 21.9 12 Norte 27 Noroeste 0 -- -- 70
2019-08-22 05:00:00 21.8 8 Norte 26 Norte 0 -- -- 71
2019-08-22 04:00:00 21.8 12 Norte 26 Nordeste 0 -- -- 69
2019-08-22 03:00:00 21.9 8 Norte 22 Norte 0 -- -- 68
2019-08-22 02:00:00 22 8 Norte 34 Norte 0 -- -- 70
2019-08-22 01:00:00 22.1 14 Norte 31 Norte 0 -- -- 71
2019-08-22 00:00:00 22.2 10 Norte 31 Nordeste 0 -- -- 69
2019-08-21 23:00:00 22.4 11 Norte 28 Nordeste 0 -- -- 69
2019-08-21 22:00:00 22.5 9 Norte 30 Nordeste 0 -- -- 67
2019-08-21 21:00:00 22.8 11 Norte 36 Norte 0 -- -- 68
2019-08-21 20:00:00 23.4 13 Norte 33 Nordeste 0 -- -- 66
2019-08-21 19:00:00 24.4 13 Norte 31 Noroeste 0 -- -- 62
2019-08-21 18:00:00 25.8 13 Norte 28 Nordeste 0 -- -- 57
2019-08-21 17:00:00 25.9 13 Norte 37 Norte 0 -- -- 58
2019-08-21 16:00:00 26.2 11 Norte 31 Noroeste 0 -- -- 57
2019-08-21 15:00:00 25.7 15 Norte 34 Noroeste 0 -- -- 58
2019-08-21 14:00:00 26 15 Norte 39 Norte 0 -- -- 57
2019-08-21 13:00:00 25.1 10 Norte 27 Nordeste 0 -- -- 60
2019-08-21 12:00:00 24.3 8 Norte 27 Norte 0 -- -- 65
2019-08-21 11:00:00 24.2 11 Norte 30 Norte 0 -- -- 63
2019-08-21 10:00:00 23.7 12 Norte 36 Norte 0 -- -- 66
2019-08-21 09:00:00 22.8 9 Norte 24 Norte 0 -- -- 70
2019-08-21 08:00:00 22.5 9 Norte 32 Nordeste 0 -- -- 69
2019-08-21 07:00:00 22.5 8 Norte 29 Norte 0 -- -- 71
2019-08-21 06:00:00 22.5 12 Norte 32 Norte 0 -- -- 71
2019-08-21 05:00:00 22.5 10 Norte 31 Norte 0 -- -- 71
2019-08-21 04:00:00 22.6 13 Norte 31 Noroeste 0 -- -- 74
2019-08-21 03:00:00 22.5 13 Norte 30 Norte 0 -- -- 72
2019-08-21 02:00:00 22.6 10 Norte 28 Norte 0 -- -- 73
2019-08-21 01:00:00 22.6 12 Norte 37 Norte 0 -- -- 73
2019-08-21 00:00:00 22.7 14 Norte 32 Norte 0 -- -- 72
2019-08-20 23:00:00 22.8 11 Norte 34 Norte 0 -- -- 73
2019-08-20 22:00:00 23.1 12 Norte 30 Norte 0 -- -- 71
2019-08-20 21:00:00 23.3 12 Norte 29 Norte 0 -- -- 71
2019-08-20 20:00:00 23.9 13 Norte 29 Norte 0 -- -- 69
2019-08-20 19:00:00 25 14 Norte 35 Noroeste 0 -- -- 65
2019-08-20 18:00:00 27.2 14 Norte 33 Norte 0 -- -- 57
2019-08-20 17:00:00 27.5 13 Norte 32 Norte 0 -- -- 56
2019-08-20 16:00:00 28.1 17 Norte 31 Noroeste 0 -- -- 48
2019-08-20 15:00:00 28.1 13 Norte 33 Norte 0 -- -- 50
2019-08-20 14:00:00 27.6 14 Norte 34 Norte 0 -- -- 55
2019-08-20 13:00:00 27.2 14 Norte 35 Norte 0 -- -- 58
2019-08-20 12:00:00 26.3 17 Norte 36 Nordeste 0 -- -- 61
2019-08-20 11:00:00 25.5 15 Norte 28 Norte 0 -- -- 63
2019-08-20 10:00:00 24.6 11 Norte 31 Norte 0 -- -- 66
2019-08-20 09:00:00 22.9 13 Norte 27 Norte 0 -- -- 72
2019-08-20 08:00:00 22 10 Norte 30 Nordeste 0 -- -- 74
2019-08-20 07:00:00 21.9 9 Norte 27 Nordeste 0 -- -- 74
2019-08-20 06:00:00 22.1 13 Norte 31 Norte 0 -- -- 73
2019-08-20 05:00:00 22.3 11 Norte 33 Norte 0 -- -- 72
2019-08-20 04:00:00 22.6 12 Norte 31 Nordeste 0 -- -- 70
2019-08-20 03:00:00 22.7 11 Norte 31 Norte 0 -- -- 69
2019-08-20 02:00:00 22.9 13 Norte 33 Nordeste 0 -- -- 69
2019-08-20 01:00:00 23.3 12 Norte 37 Norte 0 -- -- 67
2019-08-20 00:00:00 23.5 16 Norte 41 Norte 0 -- -- 64
2019-08-19 23:00:00 24.8 15 Norte 35 Nordeste 0 -- -- 57
2019-08-19 22:00:00 25.5 8 Nordeste 22 Nordeste 0 -- -- 53
2019-08-19 21:00:00 26.9 6 Nordeste 22 Nordeste 0 -- -- 43
2019-08-19 20:00:00 28.7 7 Este 19 Sudeste 0 -- -- 41
2019-08-19 19:00:00 29 11 Sur 21 Sudeste 0 -- -- 44
2019-08-19 18:00:00 32.7 12 Sur 22 Sur 0 -- -- 30
2019-08-19 17:00:00 32.1 13 Sur 22 Sur 0 -- -- 30
2019-08-19 16:00:00 31 11 Sur 20 Sudoeste 0 -- -- 37
2019-08-19 15:00:00 28.6 13 Sur 20 Sur 0 -- -- 49
2019-08-19 14:00:00 29.3 9 Sur 22 Sur 0 -- -- 50
2019-08-19 13:00:00 27.7 12 Sudeste 28 Sudeste 0 -- -- 55
2019-08-19 12:00:00 27.4 13 Sudeste 27 Sudeste 0 -- -- 56
2019-08-19 11:00:00 27.2 7 Sudeste 13 Sudeste 0 -- -- 53
2019-08-19 10:00:00 26 5 Sudeste 13 Sudoeste 0 -- -- 60
2019-08-19 09:00:00 24.6 4 Sur 14 Sudoeste 0 -- -- 65
2019-08-19 08:00:00 23.3 0 Calma 8 Nordeste 0 -- -- 61
2019-08-19 07:00:00 24.7 3 Sur 11 Sudoeste 0 -- -- 56
2019-08-19 06:00:00 26.5 5 Norte 16 Norte 0 -- -- 35
2019-08-19 05:00:00 24.7 4 Sur 12 Sudeste 0 -- -- 56
2019-08-19 04:00:00 24.6 3 Oeste 12 Sudeste 0 -- -- 43
2019-08-19 03:00:00 23.9 3 Sur 10 Sur 0 -- -- 66
2019-08-19 02:00:00 24.4 2 Sudoeste 16 Oeste 0 -- -- 69
2019-08-19 01:00:00 25.2 3 Sudeste 12 Oeste 0 -- -- 62
2019-08-19 00:00:00 26 3 Sur 6 Noroeste 0 -- -- 52
2019-08-18 23:00:00 25.9 3 Norte 4 Norte 0 -- -- 45
2019-08-18 22:00:00 27.3 0 Calma 9 Sudeste 0 -- -- 44
2019-08-18 21:00:00 28.9 2 Sur 14 Sudoeste 0 -- -- 41
2019-08-18 20:00:00 30.3 7 Sudoeste 17 Sudoeste 0 -- -- 29
2019-08-18 19:00:00 30.9 10 Sur 23 Sudoeste 0 -- -- 26
2019-08-18 18:00:00 30.9 13 Sur 23 Sudoeste 0 -- -- 36
2019-08-18 17:00:00 30.7 12 Sudoeste 24 Sudoeste 0 -- -- 41
2019-08-18 16:00:00 31.6 10 Sur 21 Sur 0 -- -- 41
2019-08-18 15:00:00 29.7 12 Sur 24 Sudeste 0 -- -- 49
2019-08-18 14:00:00 29.8 12 Sur 23 Sur 0 -- -- 45
2019-08-18 13:00:00 30.4 12 Sur 23 Sudeste 0 -- -- 43
2019-08-18 12:00:00 31.6 11 Sudoeste 21 Sudoeste 0 -- -- 38
2019-08-18 11:00:00 30.4 8 Sudoeste 24 Sudoeste 0 -- -- 39
2019-08-18 10:00:00 28.9 4 Sudeste 11 Sudeste 0 -- -- 44
2019-08-18 09:00:00 25.6 3 Norte 10 Norte 0 -- -- 37
2019-08-18 08:00:00 24 2 Noroeste 11 Norte 0 -- -- 42
2019-08-18 07:00:00 23.9 2 Norte 9 Norte 0 -- -- 42
2019-08-18 06:00:00 23.9 4 Norte 8 Norte 0 -- -- 45
2019-08-18 05:00:00 24.7 3 Norte 7 Norte 0 -- -- 45
2019-08-18 04:00:00 25.4 0 Calma 7 Oeste 0 -- -- 45
2019-08-18 03:00:00 26.6 3 Sudoeste 10 Nordeste 0 -- -- 47
2019-08-18 02:00:00 27.6 4 Nordeste 10 Nordeste 0 -- -- 41
2019-08-18 01:00:00 27.4 5 Norte 13 Noroeste 0 -- -- 39
2019-08-18 00:00:00 27.7 0 Calma 10 Nordeste 0 -- -- 37
2019-08-17 23:00:00 28.7 2 Norte 9 Norte 0 -- -- 35
2019-08-17 22:00:00 30.2 4 Oeste 12 Sur 0 -- -- 34
2019-08-17 21:00:00 31.4 5 Sudoeste 19 Sudeste 0 -- -- 30
2019-08-17 20:00:00 32.6 9 Sur 26 Este 0 -- -- 27
2019-08-17 19:00:00 33.3 7 Sur 22 Sudeste 0 -- -- 27
2019-08-17 18:00:00 35.4 10 Sur 33 Sudeste 0 -- -- 28
2019-08-17 17:00:00 33.8 14 Sur 28 Sudeste 0 -- -- 31
2019-08-17 16:00:00 35.9 12 Sur 29 Sudeste 0 -- -- 26
2019-08-17 15:00:00 36 13 Sur 27 Sudeste 0 -- -- 26
2019-08-17 14:00:00 36.1 12 Sur 29 Sudeste 0 -- -- 24
2019-08-17 13:00:00 35.7 13 Sudeste 26 Sudeste 0 -- -- 23
2019-08-17 12:00:00 35.1 6 Sudoeste 24 Sur 0 -- -- 25
2019-08-17 11:00:00 33.2 5 Sur 17 Oeste 0 -- -- 29
2019-08-17 10:00:00 30.9 5 Sur 12 Sudeste 0 -- -- 38
2019-08-17 09:00:00 27.7 3 Norte 12 Sudoeste 0 -- -- 42
2019-08-17 08:00:00 26 4 Norte 8 Nordeste 0 -- -- 42
2019-08-17 07:00:00 26.2 3 Norte 8 Norte 0 -- -- 43
2019-08-17 06:00:00 27.5 4 Norte 10 Noroeste 0 -- -- 42
2019-08-17 05:00:00 28.3 0 Calma 14 Norte 0 -- -- 39
2019-08-17 04:00:00 27.4 2 Norte 8 Noroeste 0 -- -- 40
2019-08-17 03:00:00 27.6 5 Norte 12 Norte 0 -- -- 37
2019-08-17 02:00:00 27 0 Calma 7 Noroeste 0 -- -- 48
2019-08-17 01:00:00 28.2 3 Norte 14 Norte 0 -- -- 41
2019-08-17 00:00:00 27.7 5 Norte 15 Nordeste 0 -- -- 47
2019-08-16 23:00:00 27.7 8 Nordeste 18 Norte 0 -- -- 50
2019-08-16 22:00:00 28.8 8 Norte 23 Norte 0 -- -- 44
2019-08-16 21:00:00 30.4 8 Norte 26 Norte 0 -- -- 38
2019-08-16 20:00:00 31 9 Norte 26 Nordeste 0 -- -- 37
2019-08-16 19:00:00 31.1 13 Nordeste 29 Nordeste 0 -- -- 42
2019-08-16 18:00:00 34.7 12 Nordeste 27 Norte 0 -- -- 35
2019-08-16 17:00:00 35 7 Sur 24 Norte 0 -- -- 29
2019-08-16 16:00:00 36.3 10 Norte 24 Sudeste 0 -- -- 28
2019-08-16 15:00:00 35.9 12 Sudeste 26 Sur 0 -- -- 24
2019-08-16 14:00:00 35 9 Norte 22 Nordeste 0 -- -- 25
2019-08-16 13:00:00 33.7 5 Sur 18 Noroeste 0 -- -- 29
2019-08-16 12:00:00 31.4 9 Norte 26 Nordeste 0 -- -- 37
2019-08-16 11:00:00 29.5 7 Nordeste 18 Nordeste 0 -- -- 39
2019-08-16 10:00:00 28.3 8 Norte 18 Este 0 -- -- 44
2019-08-16 09:00:00 26 7 Norte 16 Norte 0 -- -- 48
2019-08-16 08:00:00 24.7 10 Norte 25 Nordeste 0 -- -- 60
2019-08-16 07:00:00 24.6 11 Nordeste 27 Nordeste 0 -- -- 60
2019-08-16 06:00:00 24.3 9 Nordeste 25 Norte 0 -- -- 63
2019-08-16 05:00:00 23.9 11 Norte 25 Norte 0 -- -- 65
2019-08-16 04:00:00 23.9 12 Norte 25 Norte 0 -- -- 65
2019-08-16 03:00:00 24.1 9 Norte 27 Noroeste 0 -- -- 66
2019-08-16 02:00:00 24.3 12 Norte 28 Norte 0 -- -- 62
2019-08-16 01:00:00 24.2 15 Norte 28 Nordeste 0 -- -- 65
2019-08-16 00:00:00 24.3 15 Norte 32 Nordeste 0 -- -- 66
2019-08-15 23:00:00 24.2 17 Norte 31 Norte 0 -- -- 69
2019-08-15 22:00:00 24.2 16 Norte 34 Norte 0 -- -- 70
2019-08-15 21:00:00 24.5 16 Norte 32 Norte 0 -- -- 67
2019-08-15 20:00:00 25.1 15 Norte 32 Nordeste 0 -- -- 63
2019-08-15 19:00:00 26 16 Norte 37 Norte 0 -- -- 60
2019-08-15 18:00:00 27.5 15 Norte 35 Nordeste 0 -- -- 55
2019-08-15 17:00:00 28.3 15 Norte 36 Norte 0 -- -- 53
2019-08-15 16:00:00 28.1 18 Norte 33 Norte 0 -- -- 54
2019-08-15 15:00:00 28.2 17 Norte 36 Nordeste 0 -- -- 53
2019-08-15 14:00:00 28.2 13 Norte 31 Norte 0 -- -- 52
2019-08-15 13:00:00 27.8 14 Norte 30 Nordeste 0 -- -- 52
2019-08-15 12:00:00 27.4 14 Norte 30 Norte 0 -- -- 51
2019-08-15 11:00:00 26.1 14 Norte 28 Norte 0 -- -- 55
2019-08-15 10:00:00 25.4 11 Norte 29 Norte 0 -- -- 54
2019-08-15 09:00:00 23.7 12 Norte 30 Norte 0 -- -- 60
2019-08-15 08:00:00 22.5 12 Norte 30 Nordeste 0 -- -- 66
2019-08-15 07:00:00 22.4 12 Norte 38 Norte 0 -- -- 63
2019-08-15 06:00:00 22.2 15 Norte 36 Norte 0 -- -- 66
2019-08-15 05:00:00 22.3 18 Norte 38 Norte 0 -- -- 64
2019-08-15 04:00:00 22.2 17 Norte 40 Norte 0 -- -- 67
2019-08-15 03:00:00 22.1 17 Norte 36 Nordeste 0 -- -- 69
2019-08-15 02:00:00 22.3 16 Norte 33 Noroeste 0 -- -- 69
2019-08-15 01:00:00 22.4 14 Norte 40 Norte 0 -- -- 69
2019-08-15 00:00:00 22.5 16 Norte 40 Noroeste 0 -- -- 68
2019-08-14 23:00:00 22.7 18 Norte 35 Norte 0 -- -- 69
2019-08-14 22:00:00 22.8 16 Norte 39 Nordeste 0 -- -- 68
2019-08-14 21:00:00 23.2 14 Norte 32 Norte 0 -- -- 64
2019-08-14 20:00:00 24.1 15 Norte 33 Norte 0 -- -- 57
2019-08-14 19:00:00 26 13 Norte 28 Norte 0 -- -- 53
2019-08-14 18:00:00 27.3 12 Norte 29 Nordeste 0 -- -- 49
2019-08-14 17:00:00 27.3 13 Nordeste 35 Norte 0 -- -- 49
2019-08-14 16:00:00 27.3 13 Norte 36 Norte 0 -- -- 49
2019-08-14 15:00:00 27.1 15 Norte 35 Nordeste 0 -- -- 50
2019-08-14 14:00:00 26.6 18 Norte 37 Nordeste 0 -- -- 52
2019-08-14 13:00:00 26.1 16 Norte 37 Norte 0 -- -- 54
2019-08-14 12:00:00 25.6 15 Norte 36 Norte 0 -- -- 56
2019-08-14 11:00:00 24.7 16 Norte 36 Norte 0 -- -- 59
2019-08-14 10:00:00 24 13 Norte 31 Norte 0 -- -- 63
2019-08-14 09:00:00 22.5 13 Norte 35 Nordeste 0 -- -- 67
2019-08-14 08:00:00 21.6 16 Norte 35 Norte 0 -- -- 69
2019-08-14 07:00:00 21.5 15 Norte 35 Norte 0 -- -- 71
2019-08-14 06:00:00 21.5 12 Norte 30 Norte 0 -- -- 71
2019-08-14 05:00:00 21.5 12 Norte 31 Noroeste 0 -- -- 71
2019-08-14 04:00:00 21.6 11 Norte 32 Norte 0 -- -- 70
2019-08-14 03:00:00 21.7 10 Norte 30 Norte 0 -- -- 69
2019-08-14 02:00:00 21.9 11 Norte 25 Nordeste 0 -- -- 68
2019-08-14 01:00:00 22.1 9 Norte 30 Norte 0 -- -- 68
2019-08-14 00:00:00 22.2 10 Norte 23 Norte 0 -- -- 68
2019-08-13 23:00:00 22.3 9 Norte 24 Noroeste 0 -- -- 68
2019-08-13 22:00:00 22.4 13 Norte 30 Norte 0 -- -- 67
2019-08-13 21:00:00 22.7 13 Norte 30 Norte 0 -- -- 67
2019-08-13 20:00:00 23.1 13 Norte 30 Norte 0 -- -- 67
2019-08-13 19:00:00 23.6 13 Norte 28 Norte 0 -- -- 64
2019-08-13 18:00:00 24.3 12 Norte 31 Noroeste 0 -- -- 61
2019-08-13 17:00:00 25 12 Norte 40 Norte 0 -- -- 60
2019-08-13 16:00:00 25.7 13 Norte 30 Norte 0 -- -- 57
2019-08-13 15:00:00 26.2 16 Norte 35 Norte 0 -- -- 55
2019-08-13 14:00:00 26.2 13 Norte 41 Norte 0 -- -- 55
2019-08-13 13:00:00 25.9 14 Norte 35 Norte 0 -- -- 57
2019-08-13 12:00:00 25.4 12 Norte 31 Norte 0 -- -- 60
2019-08-13 11:00:00 25 10 Norte 26 Nordeste 0 -- -- 60
2019-08-13 10:00:00 24.2 10 Norte 28 Noroeste 0 -- -- 63
2019-08-13 09:00:00 23 9 Norte 31 Noroeste 0 -- -- 67
2019-08-13 08:00:00 22 9 Norte 24 Noroeste 0 -- -- 71
2019-08-13 07:00:00 22 12 Norte 28 Noroeste 0 -- -- 72
2019-08-13 06:00:00 22 10 Norte 30 Norte 0 -- -- 71
2019-08-13 05:00:00 22.1 12 Norte 32 Norte 0 -- -- 70
2019-08-13 04:00:00 22.2 12 Norte 37 Norte 0 -- -- 71
2019-08-13 03:00:00 22.2 15 Norte 34 Noroeste 0 -- -- 71
2019-08-13 02:00:00 22.4 14 Norte 31 Norte 0 -- -- 73
2019-08-13 01:00:00 22.5 14 Norte 35 Norte 0 -- -- 71
2019-08-13 00:00:00 22.6 17 Norte 39 Norte 0 -- -- 70
2019-08-12 23:00:00 22.7 12 Norte 30 Noroeste 0 -- -- 70
2019-08-12 22:00:00 22.9 10 Norte 36 Norte 0 -- -- 70
2019-08-12 21:00:00 23 15 Norte 39 Nordeste 0 -- -- 68
2019-08-12 20:00:00 23.4 13 Norte 35 Noroeste 0 -- -- 67
2019-08-12 19:00:00 24.9 11 Norte 35 Norte 0 -- -- 62
2019-08-12 18:00:00 25.6 11 Norte 30 Noroeste 0 -- -- 60
2019-08-12 17:00:00 26.3 14 Norte 36 Norte 0 -- -- 57
2019-08-12 16:00:00 26.4 15 Norte 35 Norte 0 -- -- 56
2019-08-12 15:00:00 26.7 16 Norte 35 Norte 0 -- -- 55
2019-08-12 14:00:00 26.7 14 Norte 35 Norte 0 -- -- 58
2019-08-12 13:00:00 26.6 12 Norte 31 Norte 0 -- -- 58
2019-08-12 12:00:00 26.4 13 Norte 29 Norte 0 -- -- 58
2019-08-12 11:00:00 25.7 10 Nordeste 28 Nordeste 0 -- -- 62
2019-08-12 10:00:00 24.3 8 Norte 27 Noroeste 0 -- -- 66
2019-08-12 09:00:00 23.4 9 Norte 22 Noroeste 0 -- -- 70
2019-08-12 08:00:00 22.6 9 Norte 29 Noroeste 0 -- -- 72
2019-08-12 07:00:00 22.5 10 Norte 25 Noroeste 0 -- -- 73
2019-08-12 06:00:00 22.5 9 Norte 22 Nordeste 0 -- -- 72
2019-08-12 05:00:00 22.6 5 Norte 23 Norte 0 -- -- 72
2019-08-12 04:00:00 22.7 9 Norte 26 Norte 0 -- -- 72
2019-08-12 03:00:00 22.8 9 Norte 32 Norte 0 -- -- 72
2019-08-12 02:00:00 22.9 8 Norte 30 Norte 0 -- -- 72
2019-08-12 01:00:00 23 11 Norte 38 Nordeste 0 -- -- 71
2019-08-12 00:00:00 23 10 Norte 26 Nordeste 0 -- -- 68
2019-08-11 23:00:00 23.1 10 Norte 26 Nordeste 0 -- -- 69
2019-08-11 22:00:00 23.3 11 Norte 27 Norte 0 -- -- 69
2019-08-11 21:00:00 23.5 13 Norte 28 Norte 0 -- -- 68
2019-08-11 20:00:00 23.9 13 Norte 30 Norte 0 -- -- 66
2019-08-11 19:00:00 25.2 10 Norte 38 Nordeste 0 -- -- 62
2019-08-11 18:00:00 26 17 Norte 35 Nordeste 0 -- -- 58
2019-08-11 17:00:00 26.2 17 Norte 43 Nordeste 0 -- -- 59
2019-08-11 16:00:00 26.7 12 Norte 32 Nordeste 0 -- -- 58
2019-08-11 15:00:00 26.9 11 Norte 31 Norte 0 -- -- 61
2019-08-11 14:00:00 27.3 9 Norte 33 Nordeste 0 -- -- 60
2019-08-11 13:00:00 27.3 14 Norte 30 Norte 0 -- -- 61
2019-08-11 12:00:00 26.4 12 Norte 28 Norte 0 -- -- 64
2019-08-11 11:00:00 25 12 Norte 26 Norte 0 -- -- 73
2019-08-11 10:00:00 23.9 6 Norte 23 Noroeste 0 -- -- 81
2019-08-11 09:00:00 24 11 Norte 23 Norte 0 -- -- 81
2019-08-11 08:00:00 24.5 11 Norte 26 Norte 0 -- -- 79
2019-08-11 07:00:00 24.6 12 Norte 24 Norte 0 -- -- 76
2019-08-11 06:00:00 24.4 10 Norte 26 Norte 0 -- -- 76
2019-08-11 05:00:00 24.3 9 Norte 23 Nordeste 0 -- -- 79
2019-08-11 04:00:00 24.6 11 Norte 28 Norte 0 -- -- 77
2019-08-11 03:00:00 24.6 9 Norte 26 Norte 0 -- -- 74
2019-08-11 02:00:00 24.5 10 Norte 32 Norte 0 -- -- 73
2019-08-11 01:00:00 24.3 13 Norte 30 Norte 0 -- -- 75
2019-08-11 00:00:00 24.3 10 Norte 24 Noroeste 0 -- -- 75
2019-08-10 23:00:00 24.4 13 Norte 28 Norte 0 -- -- 75
2019-08-10 22:00:00 24.5 14 Norte 35 Noroeste 0 -- -- 75
2019-08-10 21:00:00 25.3 19 Norte 40 Noroeste 0 -- -- 68
2019-08-10 20:00:00 25.7 13 Norte 29 Noroeste 0 -- -- 65
2019-08-10 19:00:00 27.2 15 Norte 39 Norte 0 -- -- 61
2019-08-10 18:00:00 28.2 13 Norte 35 Norte 0 -- -- 59
2019-08-10 17:00:00 28.5 15 Norte 35 Norte 0 -- -- 57
2019-08-10 16:00:00 28.3 18 Norte 35 Norte 0 -- -- 60
2019-08-10 15:00:00 28.9 13 Norte 34 Nordeste 0 -- -- 56
2019-08-10 14:00:00 29 16 Norte 36 Norte 0 -- -- 55
2019-08-10 13:00:00 28.5 14 Norte 38 Norte 0 -- -- 57
2019-08-10 12:00:00 27.6 17 Norte 36 Norte 0 -- -- 61
2019-08-10 11:00:00 26.7 17 Norte 37 Norte 0 -- -- 64
2019-08-10 10:00:00 25.9 14 Norte 29 Norte 0 -- -- 67
2019-08-10 09:00:00 24.5 14 Norte 35 Nordeste 0 -- -- 70
2019-08-10 08:00:00 23.9 13 Norte 42 Norte 0 -- -- 72
2019-08-10 07:00:00 23.4 13 Norte 35 Nordeste 0 -- -- 75
2019-08-10 06:00:00 23.5 12 Norte 35 Norte 0 -- -- 77
2019-08-10 05:00:00 23.7 18 Norte 43 Norte 0 -- -- 74
2019-08-10 04:00:00 23.6 18 Norte 40 Norte 0 -- -- 74
2019-08-10 03:00:00 23.7 18 Norte 35 Norte 0 -- -- 72
2019-08-10 02:00:00 24.1 17 Norte 36 Norte 0 -- -- 70
2019-08-10 01:00:00 24.3 13 Norte 33 Norte 0 -- -- 64
2019-08-10 00:00:00 24.6 10 Nordeste 23 Norte 0 -- -- 55
2019-08-09 23:00:00 24 4 Este 9 Noroeste 0 -- -- 71
2019-08-09 22:00:00 24.2 4 Sudoeste 15 Sudoeste 0 -- -- 73
2019-08-09 21:00:00 24.7 8 Sudoeste 13 Sudoeste 0 -- -- 71
2019-08-09 20:00:00 25.3 8 Sudoeste 20 Sudeste 0 -- -- 69
2019-08-09 19:00:00 27.2 9 Sudoeste 19 Sur 0 -- -- 60
2019-08-09 18:00:00 28.9 9 Sur 16 Sur 0 -- -- 55
2019-08-09 17:00:00 28.6 8 Sur 22 Sudeste 0 -- -- 56
2019-08-09 16:00:00 27.1 10 Sudeste 25 Sudeste 0 -- -- 63
2019-08-09 15:00:00 26 13 Sudeste 30 Sudeste 0 -- -- 67
2019-08-09 14:00:00 26.2 12 Sudeste 25 Sudeste 0 -- -- 66
2019-08-09 13:00:00 27.7 9 Sur 21 Sudeste 0 -- -- 56
2019-08-09 12:00:00 27.8 9 Sur 17 Sudeste 0 -- -- 56
2019-08-09 11:00:00 27.1 5 Sur 13 Sudoeste 0 -- -- 55
2019-08-09 10:00:00 25.3 4 Sur 9 Sudeste 0 -- -- 63
2019-08-09 09:00:00 22.7 0 Calma 4 Sudeste 0 -- -- 78
2019-08-09 08:00:00 20.7 4 Norte 8 Norte 0 -- -- 80
2019-08-09 07:00:00 20.8 4 Norte 6 Norte 0 -- -- 81
2019-08-09 06:00:00 21.6 3 Norte 6 Norte 0 -- -- 79
2019-08-09 05:00:00 21.6 0 Calma 6 Este 0 -- -- 79
2019-08-09 04:00:00 21.5 4 Norte 8 Norte 0 -- -- 81
2019-08-09 03:00:00 21.6 4 Norte 7 Norte 0 -- -- 80
2019-08-09 02:00:00 22.1 0 Calma 6 Norte 0 -- -- 78
2019-08-09 01:00:00 22.9 2 Norte 10 Sudoeste 0 -- -- 76
2019-08-09 00:00:00 23.3 4 Sudoeste 9 Sur 0 -- -- 77
2019-08-08 23:00:00 23.6 3 Sudoeste 11 Sudoeste 0 -- -- 76
2019-08-08 22:00:00 24 4 Norte 12 Oeste 0 -- -- 73
2019-08-08 21:00:00 24.5 2 Sudeste 9 Sur 0 -- -- 71
2019-08-08 20:00:00 25.2 4 Sur 15 Sudeste 0 -- -- 68
2019-08-08 19:00:00 26.6 5 Sudeste 17 Sudeste 0 -- -- 62
2019-08-08 18:00:00 27.2 10 Sudeste 18 Sudeste 0 -- -- 61
2019-08-08 17:00:00 27.6 8 Sudeste 22 Sudeste 0 -- -- 58
2019-08-08 16:00:00 27.3 11 Sudeste 19 Sudeste 0 -- -- 57
2019-08-08 15:00:00 27.9 8 Sudeste 19 Sudeste 0 -- -- 56
2019-08-08 14:00:00 26.7 10 Sur 19 Sudeste 0 -- -- 61
2019-08-08 13:00:00 26.5 10 Sur 23 Sur 0 -- -- 62
2019-08-08 12:00:00 26.7 8 Sudeste 18 Sur 0 -- -- 60
2019-08-08 11:00:00 25.7 6 Sudeste 14 Sudeste 0 -- -- 63
2019-08-08 10:00:00 24.5 6 Sur 12 Sudeste 0 -- -- 68
2019-08-08 09:00:00 22.2 2 Norte 6 Norte 0 -- -- 72
2019-08-08 08:00:00 20.9 0 Calma 7 Norte 0 -- -- 75
2019-08-08 07:00:00 21.1 0 Calma 4 Oeste 0 -- -- 74
2019-08-08 06:00:00 21.1 0 Calma 6 Norte 0 -- -- 72
2019-08-08 05:00:00 22.1 3 Sudoeste 12 Sur 0 -- -- 70
2019-08-08 04:00:00 22.7 5 Norte 17 Norte 0 -- -- 71
2019-08-08 03:00:00 22.7 5 Norte 15 Nordeste 0 -- -- 72
2019-08-08 02:00:00 22.8 6 Norte 18 Nordeste 0 -- -- 71
2019-08-08 01:00:00 23 6 Norte 15 Norte 0 -- -- 69
2019-08-08 00:00:00 23.4 5 Norte 15 Nordeste 0 -- -- 67
2019-08-07 23:00:00 23.6 6 Norte 18 Noroeste 0 -- -- 65
2019-08-07 22:00:00 23.7 7 Norte 23 Norte 0 -- -- 65
2019-08-07 21:00:00 23.9 10 Norte 30 Norte 0 -- -- 64
2019-08-07 20:00:00 24.7 11 Norte 29 Noroeste 0 -- -- 63
2019-08-07 19:00:00 26.7 13 Norte 27 Norte 0 -- -- 55
2019-08-07 18:00:00 27.9 12 Norte 26 Noroeste 0 -- -- 51
2019-08-07 17:00:00 29.6 8 Norte 26 Sudeste 0 -- -- 46
2019-08-07 16:00:00 29.7 8 Noroeste 26 Norte 0 -- -- 48
2019-08-07 15:00:00 29.3 11 Norte 27 Norte 0 -- -- 46
2019-08-07 14:00:00 28.5 10 Norte 28 Norte 0 -- -- 49
2019-08-07 13:00:00 27 14 Norte 30 Norte 0 -- -- 52
2019-08-07 12:00:00 26.4 15 Norte 35 Norte 0 -- -- 57
2019-08-07 11:00:00 25.8 14 Norte 29 Norte 0 -- -- 60
2019-08-07 10:00:00 24.9 11 Norte 28 Norte 0 -- -- 63
2019-08-07 09:00:00 23.6 9 Norte 25 Norte 0 -- -- 68
2019-08-07 08:00:00 22.5 10 Norte 23 Norte 0 -- -- 71
2019-08-07 07:00:00 22.4 8 Norte 22 Nordeste 0 -- -- 72
2019-08-07 06:00:00 22.4 7 Nordeste 27 Nordeste 0 -- -- 71
2019-08-07 05:00:00 22.8 9 Norte 24 Nordeste 0 -- -- 72
2019-08-07 04:00:00 23.1 9 Norte 25 Noroeste 0 -- -- 70
2019-08-07 03:00:00 23.3 9 Norte 22 Norte 0 -- -- 69
2019-08-07 02:00:00 23.3 9 Norte 19 Norte 0 -- -- 72
2019-08-07 01:00:00 23.5 9 Norte 18 Noroeste 0 -- -- 70
2019-08-07 00:00:00 23.6 10 Norte 27 Norte 0 -- -- 70
2019-08-06 23:00:00 23.5 10 Norte 24 Norte 0 -- -- 71
2019-08-06 22:00:00 23.6 6 Norte 23 Este 0 -- -- 71
2019-08-06 21:00:00 23.6 6 Nordeste 26 Nordeste 0 -- -- 69
2019-08-06 20:00:00 24 7 Norte 41 Norte 0 -- -- 66
2019-08-06 19:00:00 26.1 14 Norte 31 Noroeste 0 -- -- 57
2019-08-06 18:00:00 26.5 14 Norte 41 Norte 0 -- -- 58
2019-08-06 17:00:00 27.4 13 Norte 35 Norte 0 -- -- 58
2019-08-06 16:00:00 27.7 13 Norte 41 Norte 0 -- -- 56
2019-08-06 15:00:00 27.4 15 Norte 38 Norte 0 -- -- 56
2019-08-06 14:00:00 27 15 Norte 35 Norte 0 -- -- 57
2019-08-06 13:00:00 26.8 13 Norte 29 Nordeste 0 -- -- 58
2019-08-06 12:00:00 26.1 11 Norte 25 Noroeste 0 -- -- 61
2019-08-06 11:00:00 24.4 8 Norte 25 Norte 0 -- -- 67
2019-08-06 10:00:00 24.1 10 Norte 25 Noroeste 0 -- -- 65
2019-08-06 09:00:00 23 5 Norte 23 Norte 0 -- -- 71
2019-08-06 08:00:00 22.7 9 Norte 22 Norte 0 -- -- 71
2019-08-06 07:00:00 22.6 8 Norte 24 Norte 0 -- -- 70
2019-08-06 06:00:00 22.8 7 Norte 24 Noroeste 0 -- -- 71
2019-08-06 05:00:00 22.9 7 Norte 22 Nordeste 0 -- -- 72
2019-08-06 04:00:00 22.8 8 Norte 24 Norte 0 -- -- 72
2019-08-06 03:00:00 22.9 10 Norte 32 Norte 0 -- -- 73
2019-08-06 02:00:00 22.8 13 Norte 31 Norte 0 -- -- 73
2019-08-06 01:00:00 22.9 15 Norte 40 Nordeste 0 -- -- 72
2019-08-06 00:00:00 23 10 Norte 26 Nordeste 0 -- -- 72
2019-08-05 23:00:00 23.2 9 Norte 28 Norte 0 -- -- 72
2019-08-05 22:00:00 23.5 7 Norte 22 Noroeste 0 -- -- 71
2019-08-05 21:00:00 23.7 4 Noroeste 22 Noroeste 0 -- -- 70
2019-08-05 20:00:00 24.2 8 Norte 27 Norte 0 -- -- 69
2019-08-05 19:00:00 25.9 11 Norte 29 Nordeste 0 -- -- 61
2019-08-05 18:00:00 26.6 11 Norte 30 Norte 0 -- -- 59
2019-08-05 17:00:00 26.2 12 Norte 32 Norte 0 -- -- 60
2019-08-05 16:00:00 26.2 11 Norte 28 Norte 0 -- -- 60
2019-08-05 15:00:00 26.7 10 Nordeste 32 Norte 0 -- -- 60
2019-08-05 14:00:00 26.8 12 Norte 32 Norte 0 -- -- 57
2019-08-05 13:00:00 26.5 13 Norte 32 Noroeste 0 -- -- 59
2019-08-05 12:00:00 26.1 15 Norte 30 Norte 0 -- -- 60
2019-08-05 11:00:00 25.2 11 Norte 31 Noroeste 0 -- -- 62
2019-08-05 10:00:00 24.7 9 Norte 22 Norte 0 -- -- 64
2019-08-05 09:00:00 23.7 8 Norte 30 Norte 0 -- -- 68
2019-08-05 08:00:00 22.8 10 Norte 34 Nordeste 0 -- -- 74
2019-08-05 07:00:00 23.1 7 Norte 21 Noroeste 0 -- -- 76
2019-08-05 06:00:00 23 5 Norte 27 Noroeste 0 -- -- 72
2019-08-05 05:00:00 23 9 Nordeste 30 Norte 0 -- -- 71
2019-08-05 04:00:00 23.1 10 Norte 23 Norte 0 -- -- 72
2019-08-05 03:00:00 23.2 8 Norte 20 Norte 0 -- -- 72
2019-08-05 02:00:00 23.3 8 Norte 23 Nordeste 0 -- -- 70
2019-08-05 01:00:00 23.4 6 Norte 32 Nordeste 0 -- -- 69
2019-08-05 00:00:00 23.5 6 Norte 21 Nordeste 0 -- -- 69
2019-08-04 23:00:00 23.5 8 Norte 24 Norte 0 -- -- 71
2019-08-04 22:00:00 23.7 9 Norte 26 Nordeste 0 -- -- 69
2019-08-04 21:00:00 23.8 10 Norte 24 Norte 0 -- -- 67
2019-08-04 20:00:00 24.2 8 Norte 22 Norte 0 -- -- 67
2019-08-04 19:00:00 24.7 9 Norte 28 Norte 0 -- -- 66
2019-08-04 18:00:00 24.9 10 Norte 28 Nordeste 0 -- -- 64
2019-08-04 17:00:00 26 9 Norte 33 Norte 0 -- -- 63
2019-08-04 16:00:00 26.7 9 Norte 34 Norte 0 -- -- 61
2019-08-04 15:00:00 26.9 9 Norte 35 Noroeste 0 -- -- 59
2019-08-04 14:00:00 26.9 8 Este 33 Nordeste 0 -- -- 56
2019-08-04 13:00:00 26.4 9 Nordeste 26 Nordeste 0 -- -- 55
2019-08-04 12:00:00 26.1 8 Norte 30 Norte 0 -- -- 54
2019-08-04 11:00:00 24.7 9 Norte 26 Norte 0 -- -- 56
2019-08-04 10:00:00 23.8 9 Norte 19 Noroeste 0 -- -- 65
2019-08-04 09:00:00 23.1 7 Norte 27 Norte 0 -- -- 64
2019-08-04 08:00:00 21.9 5 Norte 26 Norte 0 -- -- 71
2019-08-04 07:00:00 22.1 11 Norte 24 Norte 0 -- -- 73
2019-08-04 06:00:00 21.8 3 Nordeste 17 Nordeste 0 -- -- 69
2019-08-04 05:00:00 21.6 5 Norte 22 Norte 0 -- -- 70
2019-08-04 04:00:00 21.6 6 Norte 23 Norte 0 -- -- 70
2019-08-04 03:00:00 21.8 6 Norte 15 Norte 0 -- -- 70
2019-08-04 02:00:00 22 7 Norte 19 Nordeste 0 -- -- 71
2019-08-04 01:00:00 22 7 Norte 21 Norte 0 -- -- 70
2019-08-04 00:00:00 22.1 5 Norte 19 Norte 0 -- -- 67
2019-08-03 23:00:00 22.2 6 Norte 19 Noroeste 0 -- -- 69
2019-08-03 22:00:00 22.3 5 Nordeste 24 Norte 0 -- -- 68
2019-08-03 21:00:00 22.5 6 Norte 20 Noroeste 0 -- -- 66
2019-08-03 20:00:00 23.2 4 Noroeste 30 Norte 0 -- -- 65
2019-08-03 19:00:00 24.9 10 Noroeste 44 Norte 0 -- -- 60
2019-08-03 18:00:00 25.3 10 Norte 31 Noroeste 0 -- -- 58
2019-08-03 17:00:00 25.6 14 Norte 38 Norte 0 -- -- 56
2019-08-03 16:00:00 26 15 Norte 35 Norte 0 -- -- 53
2019-08-03 15:00:00 26.1 17 Norte 39 Norte 0 -- -- 56
2019-08-03 14:00:00 25.8 18 Norte 39 Noroeste 0 -- -- 57
2019-08-03 13:00:00 25.9 17 Norte 38 Noroeste 0 -- -- 53
2019-08-03 12:00:00 25.4 16 Norte 32 Norte 0 -- -- 58
2019-08-03 11:00:00 24.7 15 Norte 36 Noroeste 0 -- -- 58
2019-08-03 10:00:00 24 13 Norte 28 Nordeste 0 -- -- 61
2019-08-03 09:00:00 22.9 14 Norte 27 Noroeste 0 -- -- 64
2019-08-03 08:00:00 21.8 11 Norte 27 Norte 0 -- -- 70
2019-08-03 07:00:00 21.9 11 Norte 31 Norte 0 -- -- 69
2019-08-03 06:00:00 21.8 9 Norte 20 Norte 0 -- -- 67
2019-08-03 05:00:00 22 8 Norte 24 Norte 0 -- -- 69
2019-08-03 04:00:00 21.9 6 Norte 23 Norte 0 -- -- 70
2019-08-03 03:00:00 22.1 10 Norte 26 Nordeste 0 -- -- 72
2019-08-03 02:00:00 22.2 6 Norte 22 Norte 0 -- -- 72
2019-08-03 01:00:00 22.2 5 Norte 22 Nordeste 0 -- -- 68
2019-08-03 00:00:00 22.3 8 Norte 23 Nordeste 0 -- -- 68
2019-08-02 23:00:00 22.4 12 Norte 33 Noroeste 0 -- -- 67
2019-08-02 22:00:00 22.6 13 Norte 33 Norte 0 -- -- 66
2019-08-02 21:00:00 22.8 12 Norte 32 Norte 0 -- -- 64
2019-08-02 20:00:00 23.3 14 Norte 31 Nordeste 0 -- -- 65
2019-08-02 19:00:00 25.2 11 Norte 35 Norte 0 -- -- 57
2019-08-02 18:00:00 26 13 Norte 36 Nordeste 0 -- -- 54
2019-08-02 17:00:00 26.5 14 Norte 34 Norte 0 -- -- 55
2019-08-02 16:00:00 26.9 16 Norte 31 Norte 0 -- -- 51
2019-08-02 15:00:00 26.7 14 Nordeste 32 Norte 0 -- -- 51
2019-08-02 14:00:00 26.3 14 Norte 35 Norte 0 -- -- 54
2019-08-02 13:00:00 25.9 13 Norte 39 Noroeste 0 -- -- 55
2019-08-02 12:00:00 25.3 12 Norte 31 Norte 0 -- -- 57
2019-08-02 11:00:00 24.3 10 Norte 22 Norte 0 -- -- 63
2019-08-02 10:00:00 23.7 7 Norte 21 Nordeste 0 -- -- 62
2019-08-02 09:00:00 22.5 9 Norte 22 Norte 0 -- -- 66
2019-08-02 08:00:00 21.9 5 Norte 19 Norte 0 -- -- 70
2019-08-02 07:00:00 21.7 6 Norte 20 Este 0 -- -- 71
2019-08-02 06:00:00 21.7 5 Norte 24 Norte 0 -- -- 67
2019-08-02 05:00:00 21.8 6 Nordeste 20 Nordeste 0 -- -- 70
2019-08-02 04:00:00 21.7 9 Norte 19 Norte 0 -- -- 68
2019-08-02 03:00:00 21.5 6 Norte 23 Norte 0 -- -- 67
2019-08-02 02:00:00 21.6 10 Norte 25 Norte 0 -- -- 66
2019-08-02 01:00:00 21.7 8 Norte 27 Norte 0 -- -- 66
2019-08-02 00:00:00 22.1 8 Norte 22 Norte 0 -- -- 67
2019-08-01 23:00:00 22.1 8 Norte 28 Nordeste 0 -- -- 66
2019-08-01 22:00:00 22.2 12 Norte 27 Norte 0 -- -- 65
2019-08-01 21:00:00 22.7 10 Norte 24 Norte 0 -- -- 68
2019-08-01 20:00:00 23.3 11 Norte 28 Nordeste 0 -- -- 67
2019-08-01 19:00:00 25.1 12 Norte 31 Nordeste 0 -- -- 60
2019-08-01 18:00:00 25.4 14 Norte 31 Noroeste 0 -- -- 58
2019-08-01 17:00:00 25.9 10 Norte 27 Noroeste 0 -- -- 56
2019-08-01 16:00:00 25.3 12 Norte 28 Nordeste 0 -- -- 59
2019-08-01 15:00:00 25.2 8 Norte 29 Noroeste 0 -- -- 61
2019-08-01 14:00:00 25.8 9 Norte 25 Norte 0 -- -- 57
2019-08-01 13:00:00 26.2 11 Norte 30 Norte 0 -- -- 51
2019-08-01 12:00:00 25 12 Norte 33 Norte 0 -- -- 56
2019-08-01 11:00:00 24.7 12 Norte 30 Nordeste 0 -- -- 59
2019-08-01 10:00:00 22.8 6 Nordeste 20 Norte 0 -- -- 69
2019-08-01 09:00:00 23 3 Nordeste 22 Norte 0 -- -- 61
2019-08-01 08:00:00 21.6 8 Norte 23 Norte 0 -- -- 66
2019-08-01 07:00:00 21.3 3 Norte 18 Noroeste 0 -- -- 67
2019-08-01 06:00:00 21.5 6 Norte 14 Nordeste 0 -- -- 67
2019-08-01 05:00:00 21.5 8 Norte 21 Norte 0 -- -- 66
2019-08-01 04:00:00 21.5 9 Norte 23 Norte 0 -- -- 63
2019-08-01 03:00:00 21.5 7 Norte 17 Norte 0 -- -- 65
2019-08-01 02:00:00 21.6 8 Norte 27 Nordeste 0 -- -- 62
2019-08-01 01:00:00 21.7 8 Norte 29 Norte 0 -- -- 63
2019-08-01 00:00:00 21.9 10 Norte 26 Nordeste 0 -- -- 68
2019-07-31 23:00:00 22 7 Norte 22 Noroeste 0 -- -- 68
2019-07-31 22:00:00 22.1 4 Noroeste 21 Nordeste 0 -- -- 65
2019-07-31 21:00:00 22.4 7 Norte 27 Norte 0 -- -- 65
2019-07-31 20:00:00 22.7 12 Norte 33 Noroeste 0 -- -- 64
2019-07-31 19:00:00 24.1 6 Norte 31 Norte 0 -- -- 60
2019-07-31 18:00:00 25.2 10 Norte 29 Norte 0 -- -- 54
2019-07-31 17:00:00 25.5 8 Norte 28 Norte 0 -- -- 53
2019-07-31 16:00:00 25.3 11 Norte 34 Norte 0 -- -- 55
2019-07-31 15:00:00 25.5 15 Norte 32 Norte 0 -- -- 53
2019-07-31 14:00:00 23.9 12 Norte 30 Noroeste 0 -- -- 61
2019-07-31 13:00:00 22.9 9 Norte 33 Norte 0 -- -- 67
2019-07-31 12:00:00 24.7 13 Norte 37 Noroeste 0 -- -- 58
2019-07-31 11:00:00 24 10 Norte 32 Nordeste 0 -- -- 54
2019-07-31 10:00:00 22.8 10 Norte 28 Norte 0 -- -- 61
2019-07-31 09:00:00 21.8 9 Norte 33 Nordeste 0 -- -- 62
2019-07-31 08:00:00 21.6 8 Norte 33 Noroeste 0 -- -- 67
2019-07-31 07:00:00 21.5 5 Norte 22 Noroeste 0 -- -- 60
2019-07-31 06:00:00 21.3 8 Norte 27 Norte 0 -- -- 62
2019-07-31 05:00:00 21.6 8 Norte 28 Norte 0 -- -- 61
2019-07-31 04:00:00 21.4 7 Norte 32 Norte 0 -- -- 62
2019-07-31 03:00:00 21.5 14 Norte 43 Norte 0 -- -- 62
2019-07-31 02:00:00 21.6 13 Norte 38 Noroeste 0 -- -- 69
2019-07-31 01:00:00 21.6 12 Norte 33 Norte 0 -- -- 65
2019-07-31 00:00:00 22 10 Norte 32 Nordeste 0 -- -- 68
2019-07-30 23:00:00 22.1 7 Norte 33 Noroeste 0 -- -- 65
2019-07-30 22:00:00 22.1 11 Norte 30 Norte 0 -- -- 67
2019-07-30 21:00:00 22 10 Nordeste 43 Noroeste 0 -- -- 73
2019-07-30 20:00:00 22.7 11 Norte 33 Noroeste 0 -- -- 66
2019-07-30 19:00:00 22.9 11 Norte 31 Noroeste 0 -- -- 65
2019-07-30 18:00:00 23.3 10 Norte 42 Norte 0 -- -- 63
2019-07-30 17:00:00 23.8 13 Norte 44 Norte 0 -- -- 62
2019-07-30 16:00:00 23.8 11 Norte 33 Norte 0 -- -- 61
2019-07-30 15:00:00 23.8 12 Norte 33 Norte 0 -- -- 63
2019-07-30 14:00:00 24.7 11 Norte 33 Norte 0 -- -- 60
2019-07-30 13:00:00 23.8 11 Norte 34 Norte 0 -- -- 64
2019-07-30 12:00:00 22.1 6 Noroeste 27 Norte 0 -- -- 73
2019-07-30 11:00:00 21.4 12 Norte 31 Norte 0 -- -- 79
2019-07-30 10:00:00 21.9 10 Norte 33 Noroeste 0 -- -- 74
2019-07-30 09:00:00 21.2 11 Norte 27 Nordeste 0 -- -- 82
2019-07-30 08:00:00 21.5 11 Norte 33 Norte 0 -- -- 83
2019-07-30 07:00:00 22.5 9 Norte 36 Nordeste 0 -- -- 77
2019-07-30 06:00:00 22.5 6 Norte 30 Noroeste 0 -- -- 77
2019-07-30 05:00:00 22.8 9 Norte 26 Norte 0 -- -- 79
2019-07-30 04:00:00 23.2 7 Norte 32 Noroeste 0 -- -- 73
2019-07-30 03:00:00 23.1 8 Norte 28 Norte 0 -- -- 77
2019-07-30 02:00:00 23.4 12 Norte 25 Norte 0 -- -- 70
2019-07-30 01:00:00 23.2 12 Norte 28 Norte 0 -- -- 73
2019-07-30 00:00:00 23.3 8 Norte 31 Norte 0 -- -- 72
2019-07-29 23:00:00 23.4 7 Norte 33 Nordeste 0 -- -- 73
2019-07-29 22:00:00 23.4 9 Norte 35 Nordeste 0 -- -- 73
2019-07-29 21:00:00 23.6 14 Norte 38 Norte 0 -- -- 68
2019-07-29 20:00:00 23.9 10 Norte 42 Noroeste 0 -- -- 66
2019-07-29 19:00:00 24.4 4 Este 25 Nordeste 0 -- -- 64
2019-07-29 18:00:00 25.1 9 Norte 27 Norte 0 -- -- 60
2019-07-29 17:00:00 25.7 10 Noroeste 35 Noroeste 0 -- -- 56
2019-07-29 16:00:00 26.5 11 Norte 39 Noroeste 0 -- -- 56
2019-07-29 15:00:00 26 14 Norte 35 Norte 0 -- -- 57
2019-07-29 14:00:00 25.7 14 Norte 32 Nordeste 0 -- -- 57
2019-07-29 13:00:00 25.8 10 Norte 32 Noroeste 0 -- -- 59
2019-07-29 12:00:00 25.7 13 Norte 29 Norte 0 -- -- 54
2019-07-29 11:00:00 25.2 8 Norte 35 Norte 0 -- -- 54
2019-07-29 10:00:00 24.5 10 Norte 28 Norte 0 -- -- 57
2019-07-29 09:00:00 23.1 8 Norte 18 Norte 0 -- -- 61
2019-07-29 08:00:00 22.1 6 Norte 29 Noroeste 0 -- -- 65
2019-07-29 07:00:00 22.1 12 Norte 28 Nordeste 0 -- -- 66
2019-07-29 06:00:00 22.1 11 Norte 32 Norte 0 -- -- 64
2019-07-29 05:00:00 22.2 16 Norte 34 Norte 0 -- -- 66
2019-07-29 04:00:00 22.3 13 Norte 38 Norte 0 -- -- 69
2019-07-29 03:00:00 22.4 17 Norte 33 Noroeste 0 -- -- 66
2019-07-29 02:00:00 22.6 10 Norte 32 Norte 0 -- -- 69
2019-07-29 01:00:00 22.4 12 Norte 28 Noroeste 0 -- -- 68
2019-07-29 00:00:00 22.8 13 Norte 31 Noroeste 0 -- -- 72
2019-07-28 23:00:00 22.9 6 Norte 22 Norte 0 -- -- 71
2019-07-28 22:00:00 22.9 9 Norte 29 Noroeste 0 -- -- 68
2019-07-28 21:00:00 23.2 13 Norte 32 Este 0 -- -- 68
2019-07-28 20:00:00 23.2 13 Norte 25 Norte 0 -- -- 68
2019-07-28 19:00:00 23.9 8 Norte 26 Norte 0 -- -- 71
2019-07-28 18:00:00 24.9 8 Norte 27 Noroeste 0 -- -- 66
2019-07-28 17:00:00 24.2 10 Norte 28 Nordeste 0 -- -- 70
2019-07-28 16:00:00 24 10 Norte 29 Norte 0 -- -- 74
2019-07-28 15:00:00 26.2 14 Norte 28 Nordeste 0 -- -- 66
2019-07-28 14:00:00 24.7 12 Norte 30 Nordeste 0 -- -- 72
2019-07-28 13:00:00 25.5 6 Nordeste 30 Noroeste 0 -- -- 69
2019-07-28 12:00:00 25 10 Norte 21 Nordeste 0 -- -- 72
2019-07-28 11:00:00 24.2 7 Norte 22 Noroeste 0 -- -- 73
2019-07-28 10:00:00 23.3 8 Norte 22 Norte 0 -- -- 81
2019-07-28 09:00:00 23.3 10 Norte 26 Norte 0 -- -- 77
2019-07-28 08:00:00 22.5 9 Norte 27 Norte 0 -- -- 77
2019-07-28 07:00:00 22.7 6 Norte 20 Nordeste 0 -- -- 73
2019-07-28 06:00:00 22.5 6 Norte 30 Nordeste 0 -- -- 72
2019-07-28 05:00:00 22.5 13 Norte 34 Nordeste 0 -- -- 73
2019-07-28 04:00:00 22.4 8 Norte 24 Norte 0 -- -- 75
2019-07-28 03:00:00 22.3 8 Norte 26 Norte 0 -- -- 79
2019-07-28 02:00:00 22.3 8 Norte 26 Norte 0 -- -- 78
2019-07-28 01:00:00 22.3 9 Norte 24 Norte 0 -- -- 73
2019-07-28 00:00:00 22.1 7 Norte 19 Nordeste 0 -- -- 68
2019-07-27 23:00:00 22.2 8 Norte 23 Norte 0 -- -- 68
2019-07-27 22:00:00 22.5 4 Nordeste 27 Norte 0 -- -- 70
2019-07-26 11:00:00 -- -- -- -- -- -- -- -- --
2019-07-26 10:00:00 -- -- -- -- -- -- -- -- --
2019-07-26 09:00:00 -- -- -- -- -- -- -- -- --
2019-07-26 08:00:00 -- -- -- -- -- -- -- -- --
2019-07-26 07:00:00 22.5 10 Norte 35 Norte 0 -- -- 72
2019-07-26 06:00:00 22.4 10 Norte 31 Nordeste 0 -- -- 74
2019-07-26 05:00:00 22.8 10 Norte 30 Noroeste 0 -- -- 70
2019-07-26 04:00:00 22.8 11 Norte 30 Nordeste 0 -- -- 72
2019-07-26 03:00:00 23.1 12 Norte 26 Noroeste 0 -- -- 73
2019-07-26 02:00:00 23.3 9 Norte 25 Norte 0 -- -- 72
2019-07-26 01:00:00 23.3 9 Norte 23 Norte 0 -- -- 72
2019-07-26 00:00:00 23.3 6 Nordeste 24 Norte 0 -- -- 70